sensor_id;sensor_type;location;lat;lon;timestamp;P1;durP1;ratioP1;P2;durP2;ratioP2
35977;SDS011;22056;0.000;0.000;2023-07-20T00:00:52;1.08;;;0.70;;
35977;SDS011;22056;0.000;0.000;2023-07-20T00:03:19;0.95;;;0.40;;
35977;SDS011;22056;0.000;0.000;2023-07-20T00:05:50;1.27;;;0.50;;
35977;SDS011;22056;0.000;0.000;2023-07-20T00:08:16;1.20;;;0.50;;
35977;SDS011;22056;0.000;0.000;2023-07-20T00:10:43;0.57;;;0.50;;
35977;SDS011;22056;0.000;0.000;2023-07-20T00:13:10;1.25;;;0.50;;
35977;SDS011;22056;0.000;0.000;2023-07-20T00:15:37;0.43;;;0.40;;
35977;SDS011;22056;0.000;0.000;2023-07-20T00:18:03;0.70;;;0.45;;
35977;SDS011;22056;0.000;0.000;2023-07-20T00:20:29;0.40;;;0.40;;
35977;SDS011;22056;0.000;0.000;2023-07-20T00:22:56;1.13;;;0.50;;
35977;SDS011;22056;0.000;0.000;2023-07-20T00:25:26;1.10;;;0.60;;
35977;SDS011;22056;0.000;0.000;2023-07-20T00:27:52;0.75;;;0.45;;
35977;SDS011;22056;0.000;0.000;2023-07-20T00:30:18;1.23;;;0.60;;
35977;SDS011;22056;0.000;0.000;2023-07-20T00:32:44;0.73;;;0.40;;
35977;SDS011;22056;0.000;0.000;2023-07-20T00:35:11;1.45;;;0.45;;
35977;SDS011;22056;0.000;0.000;2023-07-20T00:37:38;1.88;;;0.40;;
35977;SDS011;22056;0.000;0.000;2023-07-20T00:40:05;0.57;;;0.40;;
35977;SDS011;22056;0.000;0.000;2023-07-20T00:42:32;1.83;;;0.50;;
35977;SDS011;22056;0.000;0.000;2023-07-20T00:44:59;1.48;;;0.63;;
35977;SDS011;22056;0.000;0.000;2023-07-20T00:47:26;0.30;;;0.25;;
35977;SDS011;22056;0.000;0.000;2023-07-20T00:49:52;0.80;;;0.45;;
35977;SDS011;22056;0.000;0.000;2023-07-20T00:52:18;0.93;;;0.30;;
35977;SDS011;22056;0.000;0.000;2023-07-20T00:54:44;0.88;;;0.40;;
35977;SDS011;22056;0.000;0.000;2023-07-20T00:57:11;0.60;;;0.40;;
35977;SDS011;22056;0.000;0.000;2023-07-20T00:59:38;0.30;;;0.30;;
35977;SDS011;22056;0.000;0.000;2023-07-20T01:02:05;1.05;;;0.47;;
35977;SDS011;22056;0.000;0.000;2023-07-20T01:04:31;0.68;;;0.30;;
35977;SDS011;22056;0.000;0.000;2023-07-20T01:07:00;0.50;;;0.30;;
35977;SDS011;22056;0.000;0.000;2023-07-20T01:09:39;0.68;;;0.50;;
35977;SDS011;22056;0.000;0.000;2023-07-20T01:12:09;0.30;;;0.28;;
35977;SDS011;22056;0.000;0.000;2023-07-20T01:14:38;1.42;;;0.52;;
35977;SDS011;22056;0.000;0.000;2023-07-20T01:17:04;0.60;;;0.32;;
35977;SDS011;22056;0.000;0.000;2023-07-20T01:19:30;0.30;;;0.30;;
35977;SDS011;22056;0.000;0.000;2023-07-20T01:22:19;0.75;;;0.40;;
35977;SDS011;22056;0.000;0.000;2023-07-20T01:32:05;0.55;;;0.40;;
35977;SDS011;22056;0.000;0.000;2023-07-20T01:34:32;0.40;;;0.35;;
35977;SDS011;22056;0.000;0.000;2023-07-20T01:37:00;0.20;;;0.20;;
35977;SDS011;22056;0.000;0.000;2023-07-20T01:39:27;0.85;;;0.30;;
35977;SDS011;22056;0.000;0.000;2023-07-20T01:41:53;0.60;;;0.30;;
35977;SDS011;22056;0.000;0.000;2023-07-20T01:44:19;0.90;;;0.32;;
35977;SDS011;22056;0.000;0.000;2023-07-20T01:46:46;0.47;;;0.40;;
35977;SDS011;22056;0.000;0.000;2023-07-20T01:49:12;0.45;;;0.40;;
35977;SDS011;22056;0.000;0.000;2023-07-20T01:51:38;0.20;;;0.20;;
35977;SDS011;22056;0.000;0.000;2023-07-20T01:54:04;0.43;;;0.30;;
35977;SDS011;22056;0.000;0.000;2023-07-20T01:56:30;0.63;;;0.30;;
35977;SDS011;22056;0.000;0.000;2023-07-20T01:58:56;0.57;;;0.30;;
35977;SDS011;22056;0.000;0.000;2023-07-20T02:01:22;0.45;;;0.30;;
35977;SDS011;22056;0.000;0.000;2023-07-20T02:03:48;0.30;;;0.30;;
35977;SDS011;22056;0.000;0.000;2023-07-20T02:06:15;0.40;;;0.30;;
35977;SDS011;22056;0.000;0.000;2023-07-20T02:08:41;0.52;;;0.38;;
35977;SDS011;22056;0.000;0.000;2023-07-20T02:11:07;0.65;;;0.45;;
35977;SDS011;22056;0.000;0.000;2023-07-20T02:13:35;0.40;;;0.32;;
35977;SDS011;22056;0.000;0.000;2023-07-20T02:16:01;0.70;;;0.30;;
35977;SDS011;22056;0.000;0.000;2023-07-20T02:18:27;0.40;;;0.32;;
35977;SDS011;22056;0.000;0.000;2023-07-20T02:20:53;1.30;;;0.30;;
35977;SDS011;22056;0.000;0.000;2023-07-20T02:23:19;1.95;;;0.40;;
35977;SDS011;22056;0.000;0.000;2023-07-20T02:25:46;1.17;;;0.20;;
35977;SDS011;22056;0.000;0.000;2023-07-20T02:28:13;0.73;;;0.30;;
35977;SDS011;22056;0.000;0.000;2023-07-20T02:30:39;0.28;;;0.20;;
35977;SDS011;22056;0.000;0.000;2023-07-20T02:33:05;0.40;;;0.40;;
35977;SDS011;22056;0.000;0.000;2023-07-20T02:35:32;0.30;;;0.30;;
35977;SDS011;22056;0.000;0.000;2023-07-20T02:37:58;0.45;;;0.43;;
35977;SDS011;22056;0.000;0.000;2023-07-20T02:40:24;0.60;;;0.45;;
35977;SDS011;22056;0.000;0.000;2023-07-20T02:42:50;0.30;;;0.30;;
35977;SDS011;22056;0.000;0.000;2023-07-20T02:45:16;0.90;;;0.30;;
35977;SDS011;22056;0.000;0.000;2023-07-20T02:47:42;1.75;;;0.40;;
35977;SDS011;22056;0.000;0.000;2023-07-20T02:50:09;0.38;;;0.30;;
35977;SDS011;22056;0.000;0.000;2023-07-20T02:52:35;0.35;;;0.30;;
35977;SDS011;22056;0.000;0.000;2023-07-20T02:55:01;0.35;;;0.30;;
35977;SDS011;22056;0.000;0.000;2023-07-20T02:57:27;0.57;;;0.30;;
35977;SDS011;22056;0.000;0.000;2023-07-20T02:59:53;0.30;;;0.30;;
35977;SDS011;22056;0.000;0.000;2023-07-20T03:02:20;0.30;;;0.30;;
35977;SDS011;22056;0.000;0.000;2023-07-20T03:04:46;0.40;;;0.30;;
35977;SDS011;22056;0.000;0.000;2023-07-20T03:07:12;0.40;;;0.25;;
35977;SDS011;22056;0.000;0.000;2023-07-20T03:09:38;0.30;;;0.30;;
35977;SDS011;22056;0.000;0.000;2023-07-20T03:12:06;0.40;;;0.35;;
35977;SDS011;22056;0.000;0.000;2023-07-20T03:14:32;0.40;;;0.30;;
35977;SDS011;22056;0.000;0.000;2023-07-20T03:16:58;1.25;;;0.47;;
35977;SDS011;22056;0.000;0.000;2023-07-20T03:19:24;0.30;;;0.30;;
35977;SDS011;22056;0.000;0.000;2023-07-20T03:21:51;0.30;;;0.30;;
35977;SDS011;22056;0.000;0.000;2023-07-20T03:24:17;0.60;;;0.30;;
35977;SDS011;22056;0.000;0.000;2023-07-20T03:26:43;0.40;;;0.30;;
35977;SDS011;22056;0.000;0.000;2023-07-20T03:29:09;0.25;;;0.25;;
35977;SDS011;22056;0.000;0.000;2023-07-20T03:31:35;0.22;;;0.22;;
35977;SDS011;22056;0.000;0.000;2023-07-20T03:34:01;0.28;;;0.20;;
35977;SDS011;22056;0.000;0.000;2023-07-20T03:36:27;0.47;;;0.40;;
35977;SDS011;22056;0.000;0.000;2023-07-20T03:38:53;0.52;;;0.40;;
35977;SDS011;22056;0.000;0.000;2023-07-20T03:41:20;0.40;;;0.32;;
35977;SDS011;22056;0.000;0.000;2023-07-20T03:43:46;0.60;;;0.50;;
35977;SDS011;22056;0.000;0.000;2023-07-20T03:46:13;0.30;;;0.30;;
35977;SDS011;22056;0.000;0.000;2023-07-20T03:48:39;0.30;;;0.30;;
35977;SDS011;22056;0.000;0.000;2023-07-20T03:51:05;0.38;;;0.30;;
35977;SDS011;22056;0.000;0.000;2023-07-20T03:53:31;0.43;;;0.30;;
35977;SDS011;22056;0.000;0.000;2023-07-20T03:55:57;0.40;;;0.35;;
35977;SDS011;22056;0.000;0.000;2023-07-20T03:58:23;0.32;;;0.20;;
35977;SDS011;22056;0.000;0.000;2023-07-20T04:03:26;0.38;;;0.22;;
35977;SDS011;22056;0.000;0.000;2023-07-20T04:05:55;0.50;;;0.30;;
35977;SDS011;22056;0.000;0.000;2023-07-20T04:08:22;0.30;;;0.30;;
35977;SDS011;22056;0.000;0.000;2023-07-20T04:10:52;0.40;;;0.30;;
35977;SDS011;22056;0.000;0.000;2023-07-20T04:13:18;3.47;;;0.60;;
35977;SDS011;22056;0.000;0.000;2023-07-20T04:15:44;0.30;;;0.30;;
35977;SDS011;22056;0.000;0.000;2023-07-20T04:18:10;0.40;;;0.30;;
35977;SDS011;22056;0.000;0.000;2023-07-20T04:20:37;1.77;;;0.30;;
35977;SDS011;22056;0.000;0.000;2023-07-20T04:23:03;1.48;;;0.40;;
35977;SDS011;22056;0.000;0.000;2023-07-20T04:25:29;0.30;;;0.30;;
35977;SDS011;22056;0.000;0.000;2023-07-20T04:28:04;0.85;;;0.32;;
35977;SDS011;22056;0.000;0.000;2023-07-20T04:30:33;0.40;;;0.40;;
35977;SDS011;22056;0.000;0.000;2023-07-20T04:33:00;0.93;;;0.40;;
35977;SDS011;22056;0.000;0.000;2023-07-20T04:38:11;1.08;;;0.40;;
35977;SDS011;22056;0.000;0.000;2023-07-20T04:40:37;1.23;;;0.50;;
35977;SDS011;22056;0.000;0.000;2023-07-20T04:43:03;3.40;;;0.40;;
35977;SDS011;22056;0.000;0.000;2023-07-20T04:45:30;1.25;;;0.40;;
35977;SDS011;22056;0.000;0.000;2023-07-20T04:47:56;0.40;;;0.40;;
35977;SDS011;22056;0.000;0.000;2023-07-20T04:50:22;1.88;;;0.50;;
35977;SDS011;22056;0.000;0.000;2023-07-20T04:52:50;2.10;;;0.35;;
35977;SDS011;22056;0.000;0.000;2023-07-20T04:55:16;0.75;;;0.43;;
35977;SDS011;22056;0.000;0.000;2023-07-20T04:57:42;0.85;;;0.40;;
35977;SDS011;22056;0.000;0.000;2023-07-20T05:00:08;1.58;;;0.40;;
35977;SDS011;22056;0.000;0.000;2023-07-20T05:02:39;0.82;;;0.43;;
35977;SDS011;22056;0.000;0.000;2023-07-20T05:05:05;0.60;;;0.40;;
35977;SDS011;22056;0.000;0.000;2023-07-20T05:07:32;1.17;;;0.30;;
35977;SDS011;22056;0.000;0.000;2023-07-20T05:09:58;0.65;;;0.50;;
35977;SDS011;22056;0.000;0.000;2023-07-20T05:12:24;2.25;;;0.50;;
35977;SDS011;22056;0.000;0.000;2023-07-20T05:14:50;1.33;;;0.50;;
35977;SDS011;22056;0.000;0.000;2023-07-20T05:17:17;0.85;;;0.52;;
35977;SDS011;22056;0.000;0.000;2023-07-20T05:19:43;2.40;;;0.50;;
35977;SDS011;22056;0.000;0.000;2023-07-20T05:22:09;1.27;;;0.50;;
35977;SDS011;22056;0.000;0.000;2023-07-20T05:24:36;2.33;;;0.50;;
35977;SDS011;22056;0.000;0.000;2023-07-20T05:27:02;3.03;;;0.80;;
35977;SDS011;22056;0.000;0.000;2023-07-20T05:29:28;2.08;;;0.40;;
35977;SDS011;22056;0.000;0.000;2023-07-20T05:31:54;0.73;;;0.50;;
35977;SDS011;22056;0.000;0.000;2023-07-20T05:34:20;2.85;;;0.68;;
35977;SDS011;22056;0.000;0.000;2023-07-20T05:36:46;1.00;;;0.40;;
35977;SDS011;22056;0.000;0.000;2023-07-20T05:39:12;0.93;;;0.40;;
35977;SDS011;22056;0.000;0.000;2023-07-20T05:41:38;2.40;;;0.60;;
35977;SDS011;22056;0.000;0.000;2023-07-20T05:44:05;1.67;;;0.50;;
35977;SDS011;22056;0.000;0.000;2023-07-20T05:46:31;2.15;;;0.43;;
35977;SDS011;22056;0.000;0.000;2023-07-20T05:48:57;3.00;;;0.50;;
35977;SDS011;22056;0.000;0.000;2023-07-20T05:51:23;3.40;;;0.50;;
35977;SDS011;22056;0.000;0.000;2023-07-20T05:53:49;2.00;;;0.50;;
35977;SDS011;22056;0.000;0.000;2023-07-20T05:56:15;2.17;;;0.52;;
35977;SDS011;22056;0.000;0.000;2023-07-20T05:58:42;1.42;;;0.65;;
35977;SDS011;22056;0.000;0.000;2023-07-20T06:01:08;2.08;;;0.70;;
35977;SDS011;22056;0.000;0.000;2023-07-20T06:03:34;4.00;;;0.70;;
35977;SDS011;22056;0.000;0.000;2023-07-20T06:06:01;1.45;;;0.63;;
35977;SDS011;22056;0.000;0.000;2023-07-20T06:08:30;0.38;;;0.38;;
35977;SDS011;22056;0.000;0.000;2023-07-20T06:10:57;1.25;;;0.55;;
35977;SDS011;22056;0.000;0.000;2023-07-20T06:13:23;1.40;;;0.43;;
35977;SDS011;22056;0.000;0.000;2023-07-20T06:15:50;1.98;;;0.60;;
35977;SDS011;22056;0.000;0.000;2023-07-20T06:18:16;0.90;;;0.68;;
35977;SDS011;22056;0.000;0.000;2023-07-20T06:20:42;1.05;;;0.40;;
35977;SDS011;22056;0.000;0.000;2023-07-20T06:23:08;2.63;;;0.55;;
35977;SDS011;22056;0.000;0.000;2023-07-20T06:25:35;2.20;;;0.40;;
35977;SDS011;22056;0.000;0.000;2023-07-20T06:28:01;2.30;;;0.60;;
35977;SDS011;22056;0.000;0.000;2023-07-20T06:30:30;1.77;;;0.50;;
35977;SDS011;22056;0.000;0.000;2023-07-20T06:32:56;0.80;;;0.40;;
35977;SDS011;22056;0.000;0.000;2023-07-20T06:35:22;1.73;;;0.50;;
35977;SDS011;22056;0.000;0.000;2023-07-20T06:37:48;1.98;;;0.70;;
35977;SDS011;22056;0.000;0.000;2023-07-20T06:40:14;2.40;;;0.60;;
35977;SDS011;22056;0.000;0.000;2023-07-20T06:42:40;0.82;;;0.40;;
35977;SDS011;22056;0.000;0.000;2023-07-20T06:45:07;1.25;;;0.50;;
35977;SDS011;22056;0.000;0.000;2023-07-20T06:47:33;1.67;;;0.57;;
35977;SDS011;22056;0.000;0.000;2023-07-20T06:50:00;1.92;;;0.60;;
35977;SDS011;22056;0.000;0.000;2023-07-20T06:52:26;2.47;;;0.50;;
35977;SDS011;22056;0.000;0.000;2023-07-20T06:54:52;2.35;;;0.60;;
35977;SDS011;22056;0.000;0.000;2023-07-20T06:57:18;0.88;;;0.40;;
35977;SDS011;22056;0.000;0.000;2023-07-20T06:59:44;2.45;;;0.50;;
35977;SDS011;22056;0.000;0.000;2023-07-20T07:02:10;1.60;;;0.60;;
35977;SDS011;22056;0.000;0.000;2023-07-20T07:04:37;1.30;;;0.30;;
35977;SDS011;22056;0.000;0.000;2023-07-20T07:07:04;0.80;;;0.50;;
35977;SDS011;22056;0.000;0.000;2023-07-20T07:09:30;1.38;;;0.50;;
35977;SDS011;22056;0.000;0.000;2023-07-20T07:11:56;2.50;;;0.47;;
35977;SDS011;22056;0.000;0.000;2023-07-20T07:14:23;0.88;;;0.40;;
35977;SDS011;22056;0.000;0.000;2023-07-20T07:16:49;2.95;;;0.60;;
35977;SDS011;22056;0.000;0.000;2023-07-20T07:19:15;5.03;;;0.70;;
35977;SDS011;22056;0.000;0.000;2023-07-20T07:21:41;2.85;;;0.38;;
35977;SDS011;22056;0.000;0.000;2023-07-20T07:24:07;1.77;;;0.47;;
35977;SDS011;22056;0.000;0.000;2023-07-20T07:26:35;2.22;;;0.57;;
35977;SDS011;22056;0.000;0.000;2023-07-20T07:29:01;2.22;;;0.60;;
35977;SDS011;22056;0.000;0.000;2023-07-20T07:31:28;2.22;;;0.50;;
35977;SDS011;22056;0.000;0.000;2023-07-20T07:33:55;1.23;;;0.60;;
35977;SDS011;22056;0.000;0.000;2023-07-20T07:36:21;2.15;;;0.40;;
35977;SDS011;22056;0.000;0.000;2023-07-20T07:38:50;0.70;;;0.45;;
35977;SDS011;22056;0.000;0.000;2023-07-20T07:41:16;2.53;;;0.60;;
35977;SDS011;22056;0.000;0.000;2023-07-20T07:43:42;1.98;;;0.50;;
35977;SDS011;22056;0.000;0.000;2023-07-20T07:46:08;1.75;;;0.50;;
35977;SDS011;22056;0.000;0.000;2023-07-20T07:48:34;1.02;;;0.63;;
35977;SDS011;22056;0.000;0.000;2023-07-20T07:51:00;1.83;;;0.40;;
35977;SDS011;22056;0.000;0.000;2023-07-20T07:53:27;1.55;;;0.50;;
35977;SDS011;22056;0.000;0.000;2023-07-20T07:55:53;1.35;;;0.70;;
35977;SDS011;22056;0.000;0.000;2023-07-20T07:58:19;1.80;;;0.43;;
35977;SDS011;22056;0.000;0.000;2023-07-20T08:00:45;0.95;;;0.47;;
35977;SDS011;22056;0.000;0.000;2023-07-20T08:03:13;1.13;;;0.63;;
35977;SDS011;22056;0.000;0.000;2023-07-20T08:05:39;1.88;;;0.60;;
35977;SDS011;22056;0.000;0.000;2023-07-20T08:08:05;1.95;;;0.65;;
35977;SDS011;22056;0.000;0.000;2023-07-20T08:10:31;5.18;;;0.73;;
35977;SDS011;22056;0.000;0.000;2023-07-20T08:12:57;2.05;;;0.60;;
35977;SDS011;22056;0.000;0.000;2023-07-20T08:15:23;4.10;;;0.60;;
35977;SDS011;22056;0.000;0.000;2023-07-20T08:17:49;3.00;;;0.60;;
35977;SDS011;22056;0.000;0.000;2023-07-20T08:20:17;2.20;;;0.70;;
35977;SDS011;22056;0.000;0.000;2023-07-20T08:22:43;5.35;;;0.63;;
35977;SDS011;22056;0.000;0.000;2023-07-20T08:25:09;2.72;;;0.50;;
35977;SDS011;22056;0.000;0.000;2023-07-20T08:27:36;3.33;;;0.60;;
35977;SDS011;22056;0.000;0.000;2023-07-20T08:30:02;1.42;;;0.60;;
35977;SDS011;22056;0.000;0.000;2023-07-20T08:32:33;1.88;;;0.45;;
35977;SDS011;22056;0.000;0.000;2023-07-20T08:34:59;3.75;;;0.57;;
35977;SDS011;22056;0.000;0.000;2023-07-20T08:37:25;4.88;;;0.65;;
35977;SDS011;22056;0.000;0.000;2023-07-20T08:39:51;4.15;;;0.60;;
35977;SDS011;22056;0.000;0.000;2023-07-20T08:42:17;2.97;;;0.63;;
35977;SDS011;22056;0.000;0.000;2023-07-20T08:44:43;2.53;;;0.55;;
35977;SDS011;22056;0.000;0.000;2023-07-20T08:47:11;2.63;;;0.40;;
35977;SDS011;22056;0.000;0.000;2023-07-20T08:49:38;1.48;;;0.40;;
35977;SDS011;22056;0.000;0.000;2023-07-20T08:52:05;3.50;;;0.60;;
35977;SDS011;22056;0.000;0.000;2023-07-20T08:54:31;1.00;;;0.40;;
35977;SDS011;22056;0.000;0.000;2023-07-20T08:57:04;2.15;;;0.50;;
35977;SDS011;22056;0.000;0.000;2023-07-20T08:59:30;2.03;;;0.50;;
35977;SDS011;22056;0.000;0.000;2023-07-20T09:01:57;4.38;;;0.80;;
35977;SDS011;22056;0.000;0.000;2023-07-20T09:04:24;3.08;;;0.50;;
35977;SDS011;22056;0.000;0.000;2023-07-20T09:06:50;2.28;;;0.60;;
35977;SDS011;22056;0.000;0.000;2023-07-20T09:09:17;2.13;;;0.52;;
35977;SDS011;22056;0.000;0.000;2023-07-20T09:11:43;1.95;;;0.30;;
35977;SDS011;22056;0.000;0.000;2023-07-20T09:14:09;3.78;;;0.68;;
35977;SDS011;22056;0.000;0.000;2023-07-20T09:16:54;1.13;;;0.50;;
35977;SDS011;22056;0.000;0.000;2023-07-20T09:19:21;3.17;;;0.50;;
35977;SDS011;22056;0.000;0.000;2023-07-20T09:21:51;2.78;;;0.50;;
35977;SDS011;22056;0.000;0.000;2023-07-20T09:24:18;2.67;;;0.50;;
35977;SDS011;22056;0.000;0.000;2023-07-20T09:26:44;2.97;;;0.65;;
35977;SDS011;22056;0.000;0.000;2023-07-20T09:29:13;1.52;;;0.70;;
35977;SDS011;22056;0.000;0.000;2023-07-20T09:31:39;1.20;;;0.50;;
35977;SDS011;22056;0.000;0.000;2023-07-20T09:34:06;0.80;;;0.50;;
35977;SDS011;22056;0.000;0.000;2023-07-20T09:36:35;1.88;;;0.57;;
35977;SDS011;22056;0.000;0.000;2023-07-20T09:39:03;4.18;;;0.50;;
35977;SDS011;22056;0.000;0.000;2023-07-20T09:41:29;2.45;;;0.73;;
35977;SDS011;22056;0.000;0.000;2023-07-20T09:43:56;1.73;;;0.70;;
35977;SDS011;22056;0.000;0.000;2023-07-20T09:46:22;1.25;;;0.55;;
35977;SDS011;22056;0.000;0.000;2023-07-20T09:48:54;3.58;;;0.57;;
35977;SDS011;22056;0.000;0.000;2023-07-20T09:51:23;4.13;;;0.77;;
35977;SDS011;22056;0.000;0.000;2023-07-20T09:53:51;5.47;;;1.00;;
35977;SDS011;22056;0.000;0.000;2023-07-20T09:56:21;4.40;;;1.02;;
35977;SDS011;22056;0.000;0.000;2023-07-20T09:58:48;2.33;;;1.08;;
35977;SDS011;22056;0.000;0.000;2023-07-20T10:01:16;4.65;;;1.10;;
35977;SDS011;22056;0.000;0.000;2023-07-20T10:03:43;3.60;;;0.90;;
35977;SDS011;22056;0.000;0.000;2023-07-20T10:06:13;6.20;;;1.15;;
35977;SDS011;22056;0.000;0.000;2023-07-20T10:08:41;4.82;;;0.75;;
35977;SDS011;22056;0.000;0.000;2023-07-20T10:11:07;4.10;;;0.80;;
35977;SDS011;22056;0.000;0.000;2023-07-20T10:13:37;4.50;;;0.93;;
35977;SDS011;22056;0.000;0.000;2023-07-20T10:16:50;2.70;;;0.82;;
35977;SDS011;22056;0.000;0.000;2023-07-20T10:21:29;2.88;;;0.60;;
35977;SDS011;22056;0.000;0.000;2023-07-20T10:23:58;4.45;;;0.60;;
35977;SDS011;22056;0.000;0.000;2023-07-20T10:26:25;2.78;;;0.73;;
35977;SDS011;22056;0.000;0.000;2023-07-20T10:28:52;2.83;;;0.80;;
35977;SDS011;22056;0.000;0.000;2023-07-20T10:31:18;5.38;;;0.70;;
35977;SDS011;22056;0.000;0.000;2023-07-20T10:33:45;6.03;;;0.80;;
35977;SDS011;22056;0.000;0.000;2023-07-20T10:36:11;2.60;;;0.70;;
35977;SDS011;22056;0.000;0.000;2023-07-20T10:41:20;1.98;;;0.80;;
35977;SDS011;22056;0.000;0.000;2023-07-20T10:43:47;2.55;;;0.80;;
35977;SDS011;22056;0.000;0.000;2023-07-20T10:46:13;4.43;;;0.73;;
35977;SDS011;22056;0.000;0.000;2023-07-20T10:48:59;1.98;;;0.70;;
35977;SDS011;22056;0.000;0.000;2023-07-20T10:51:25;4.80;;;0.63;;
35977;SDS011;22056;0.000;0.000;2023-07-20T10:53:51;5.75;;;0.90;;
35977;SDS011;22056;0.000;0.000;2023-07-20T10:56:21;3.10;;;0.73;;
35977;SDS011;22056;0.000;0.000;2023-07-20T10:58:47;4.25;;;0.90;;
35977;SDS011;22056;0.000;0.000;2023-07-20T11:01:14;5.22;;;0.57;;
35977;SDS011;22056;0.000;0.000;2023-07-20T11:03:42;3.35;;;0.55;;
35977;SDS011;22056;0.000;0.000;2023-07-20T11:09:04;3.78;;;0.50;;
35977;SDS011;22056;0.000;0.000;2023-07-20T11:11:31;5.95;;;0.70;;
35977;SDS011;22056;0.000;0.000;2023-07-20T11:14:40;2.15;;;0.68;;
35977;SDS011;22056;0.000;0.000;2023-07-20T11:16:47;1.25;;;0.60;;
35977;SDS011;22056;0.000;0.000;2023-07-20T11:19:17;2.38;;;0.82;;
35977;SDS011;22056;0.000;0.000;2023-07-20T11:21:45;1.65;;;0.60;;
35977;SDS011;22056;0.000;0.000;2023-07-20T11:24:11;3.22;;;0.52;;
35977;SDS011;22056;0.000;0.000;2023-07-20T11:29:07;3.08;;;0.63;;
35977;SDS011;22056;0.000;0.000;2023-07-20T11:31:37;3.75;;;0.57;;
35977;SDS011;22056;0.000;0.000;2023-07-20T11:34:04;4.15;;;0.50;;
35977;SDS011;22056;0.000;0.000;2023-07-20T11:36:30;2.40;;;0.70;;
35977;SDS011;22056;0.000;0.000;2023-07-20T11:38:56;1.77;;;0.55;;
35977;SDS011;22056;0.000;0.000;2023-07-20T11:41:23;4.03;;;0.73;;
35977;SDS011;22056;0.000;0.000;2023-07-20T11:43:51;4.43;;;0.70;;
35977;SDS011;22056;0.000;0.000;2023-07-20T11:46:17;3.50;;;0.70;;
35977;SDS011;22056;0.000;0.000;2023-07-20T11:48:43;2.30;;;0.60;;
35977;SDS011;22056;0.000;0.000;2023-07-20T11:51:13;3.33;;;0.75;;
35977;SDS011;22056;0.000;0.000;2023-07-20T11:53:40;3.85;;;0.85;;
35977;SDS011;22056;0.000;0.000;2023-07-20T11:56:07;2.83;;;0.60;;
35977;SDS011;22056;0.000;0.000;2023-07-20T11:58:33;3.65;;;0.77;;
35977;SDS011;22056;0.000;0.000;2023-07-20T12:00:59;1.67;;;0.63;;
35977;SDS011;22056;0.000;0.000;2023-07-20T12:03:25;1.30;;;0.50;;
35977;SDS011;22056;0.000;0.000;2023-07-20T12:05:51;4.97;;;0.80;;
35977;SDS011;22056;0.000;0.000;2023-07-20T12:08:17;1.60;;;0.50;;
35977;SDS011;22056;0.000;0.000;2023-07-20T12:10:44;2.80;;;0.50;;
35977;SDS011;22056;0.000;0.000;2023-07-20T12:13:11;2.55;;;0.70;;
35977;SDS011;22056;0.000;0.000;2023-07-20T12:15:38;4.35;;;0.93;;
35977;SDS011;22056;0.000;0.000;2023-07-20T12:18:04;1.77;;;0.52;;
35977;SDS011;22056;0.000;0.000;2023-07-20T12:20:31;5.32;;;0.55;;
35977;SDS011;22056;0.000;0.000;2023-07-20T12:23:02;1.38;;;0.45;;
35977;SDS011;22056;0.000;0.000;2023-07-20T12:25:42;6.53;;;0.82;;
35977;SDS011;22056;0.000;0.000;2023-07-20T12:28:09;4.75;;;0.60;;
35977;SDS011;22056;0.000;0.000;2023-07-20T12:30:36;3.92;;;0.80;;
35977;SDS011;22056;0.000;0.000;2023-07-20T12:33:03;2.15;;;0.45;;
35977;SDS011;22056;0.000;0.000;2023-07-20T12:35:29;2.50;;;0.50;;
35977;SDS011;22056;0.000;0.000;2023-07-20T12:37:56;2.92;;;0.60;;
35977;SDS011;22056;0.000;0.000;2023-07-20T12:40:22;7.68;;;0.95;;
35977;SDS011;22056;0.000;0.000;2023-07-20T12:42:48;4.68;;;0.70;;
35977;SDS011;22056;0.000;0.000;2023-07-20T12:45:14;5.90;;;0.75;;
35977;SDS011;22056;0.000;0.000;2023-07-20T12:47:41;8.27;;;0.90;;
35977;SDS011;22056;0.000;0.000;2023-07-20T12:50:09;3.80;;;0.60;;
35977;SDS011;22056;0.000;0.000;2023-07-20T12:52:39;7.13;;;1.00;;
35977;SDS011;22056;0.000;0.000;2023-07-20T12:55:05;4.93;;;0.93;;
35977;SDS011;22056;0.000;0.000;2023-07-20T12:57:33;3.58;;;0.90;;
35977;SDS011;22056;0.000;0.000;2023-07-20T13:00:00;4.20;;;1.10;;
35977;SDS011;22056;0.000;0.000;2023-07-20T13:02:27;4.47;;;0.90;;
35977;SDS011;22056;0.000;0.000;2023-07-20T13:04:53;3.53;;;1.00;;
35977;SDS011;22056;0.000;0.000;2023-07-20T13:07:19;6.32;;;0.80;;
35977;SDS011;22056;0.000;0.000;2023-07-20T13:09:54;3.20;;;0.70;;
35977;SDS011;22056;0.000;0.000;2023-07-20T13:12:21;3.97;;;0.98;;
35977;SDS011;22056;0.000;0.000;2023-07-20T13:14:47;3.75;;;0.88;;
35977;SDS011;22056;0.000;0.000;2023-07-20T13:17:13;4.68;;;1.08;;
35977;SDS011;22056;0.000;0.000;2023-07-20T13:19:40;5.03;;;0.68;;
35977;SDS011;22056;0.000;0.000;2023-07-20T13:22:06;8.23;;;1.00;;
35977;SDS011;22056;0.000;0.000;2023-07-20T13:24:32;2.72;;;0.68;;
35977;SDS011;22056;0.000;0.000;2023-07-20T13:26:58;5.13;;;0.93;;
35977;SDS011;22056;0.000;0.000;2023-07-20T13:29:24;5.60;;;1.00;;
35977;SDS011;22056;0.000;0.000;2023-07-20T13:31:51;3.30;;;0.70;;
35977;SDS011;22056;0.000;0.000;2023-07-20T13:34:17;8.38;;;0.90;;
35977;SDS011;22056;0.000;0.000;2023-07-20T13:36:43;3.40;;;1.02;;
35977;SDS011;22056;0.000;0.000;2023-07-20T13:39:09;3.95;;;1.10;;
35977;SDS011;22056;0.000;0.000;2023-07-20T13:41:35;5.15;;;1.17;;
35977;SDS011;22056;0.000;0.000;2023-07-20T13:44:02;5.07;;;0.85;;
35977;SDS011;22056;0.000;0.000;2023-07-20T13:46:28;3.28;;;0.60;;
35977;SDS011;22056;0.000;0.000;2023-07-20T13:48:54;3.42;;;0.77;;
35977;SDS011;22056;0.000;0.000;2023-07-20T13:51:20;1.50;;;0.60;;
35977;SDS011;22056;0.000;0.000;2023-07-20T13:53:47;6.40;;;0.60;;
35977;SDS011;22056;0.000;0.000;2023-07-20T13:56:13;5.38;;;0.93;;
35977;SDS011;22056;0.000;0.000;2023-07-20T13:58:40;4.65;;;0.85;;
35977;SDS011;22056;0.000;0.000;2023-07-20T14:01:06;1.98;;;0.70;;
35977;SDS011;22056;0.000;0.000;2023-07-20T14:03:32;6.03;;;0.70;;
35977;SDS011;22056;0.000;0.000;2023-07-20T14:05:58;6.05;;;0.80;;
35977;SDS011;22056;0.000;0.000;2023-07-20T14:08:24;7.47;;;1.10;;
35977;SDS011;22056;0.000;0.000;2023-07-20T14:10:50;3.13;;;0.60;;
35977;SDS011;22056;0.000;0.000;2023-07-20T14:13:16;1.95;;;0.80;;
35977;SDS011;22056;0.000;0.000;2023-07-20T14:15:42;2.08;;;0.70;;
35977;SDS011;22056;0.000;0.000;2023-07-20T14:18:09;2.67;;;0.88;;
35977;SDS011;22056;0.000;0.000;2023-07-20T14:20:35;1.88;;;0.70;;
35977;SDS011;22056;0.000;0.000;2023-07-20T14:23:01;2.15;;;0.80;;
35977;SDS011;22056;0.000;0.000;2023-07-20T14:25:27;4.55;;;0.70;;
35977;SDS011;22056;0.000;0.000;2023-07-20T14:27:53;2.72;;;0.85;;
35977;SDS011;22056;0.000;0.000;2023-07-20T14:30:19;3.70;;;0.60;;
35977;SDS011;22056;0.000;0.000;2023-07-20T14:32:45;2.58;;;0.77;;
35977;SDS011;22056;0.000;0.000;2023-07-20T14:35:12;4.13;;;0.90;;
35977;SDS011;22056;0.000;0.000;2023-07-20T14:37:38;4.05;;;0.80;;
35977;SDS011;22056;0.000;0.000;2023-07-20T14:40:05;2.15;;;0.55;;
35977;SDS011;22056;0.000;0.000;2023-07-20T14:42:32;4.60;;;0.88;;
35977;SDS011;22056;0.000;0.000;2023-07-20T14:44:58;3.35;;;0.70;;
35977;SDS011;22056;0.000;0.000;2023-07-20T14:47:24;6.03;;;0.95;;
35977;SDS011;22056;0.000;0.000;2023-07-20T14:49:50;3.92;;;0.80;;
35977;SDS011;22056;0.000;0.000;2023-07-20T14:52:16;5.97;;;0.75;;
35977;SDS011;22056;0.000;0.000;2023-07-20T14:54:42;6.80;;;1.05;;
35977;SDS011;22056;0.000;0.000;2023-07-20T14:57:08;5.75;;;1.00;;
35977;SDS011;22056;0.000;0.000;2023-07-20T14:59:39;1.83;;;0.70;;
35977;SDS011;22056;0.000;0.000;2023-07-20T15:02:08;5.72;;;0.90;;
35977;SDS011;22056;0.000;0.000;2023-07-20T15:04:35;4.68;;;0.70;;
35977;SDS011;22056;0.000;0.000;2023-07-20T15:07:01;6.95;;;1.17;;
35977;SDS011;22056;0.000;0.000;2023-07-20T15:09:27;5.78;;;0.90;;
35977;SDS011;22056;0.000;0.000;2023-07-20T15:11:53;2.88;;;0.70;;
35977;SDS011;22056;0.000;0.000;2023-07-20T15:14:20;3.55;;;0.70;;
35977;SDS011;22056;0.000;0.000;2023-07-20T15:16:46;4.38;;;0.90;;
35977;SDS011;22056;0.000;0.000;2023-07-20T15:19:12;5.82;;;0.90;;
35977;SDS011;22056;0.000;0.000;2023-07-20T15:21:38;5.03;;;1.00;;